Time;durP1;ratioP1;P1;durP2;ratioP2;P2;SDS_P1;SDS_P2;PMS_P1;PMS_P2;Temp;Humidity;BMP_temperature;BMP_pressure;BME280_temperature;BME280_humidity;BME280_pressure;Samples;Min_cycle;Max_cycle;Signal;HPM_P1;HPM_P2
2021/11/02 00:01:45;;;;;;;35.10;25.90;;;;;;;5.63;74.97;99417.27;85631;1320;89181;-66
2021/11/02 00:03:55;;;;;;;36.40;22.50;;;;;;;5.62;75.31;99421.35;85596;1318;94073;-66
2021/11/02 00:06:08;;;;;;;37.50;25.60;;;;;;;5.58;75.28;99424.36;85572;1323;79308;-67
2021/11/02 00:08:17;;;;;;;36.60;25.30;;;;;;;5.56;75.71;99419.56;85626;1325;82658;-67
2021/11/02 00:10:30;;;;;;;39.20;24.80;;;;;;;5.54;75.61;99425.84;85608;1324;98107;-64
2021/11/02 00:12:40;;;;;;;32.80;23.50;;;;;;;5.50;75.83;99432.61;85607;1320;89177;-64
2021/11/02 00:14:51;;;;;;;34.70;23.60;;;;;;;5.45;75.55;99432.30;85624;1325;95575;-66
2021/11/02 00:17:06;;;;;;;36.50;25.20;;;;;;;5.44;75.26;99424.59;85622;1324;80695;-64
2021/11/02 00:19:19;;;;;;;36.50;25.20;;;;;;;5.44;75.70;99420.18;85610;1318;82656;-66
2021/11/02 00:21:32;;;;;;;37.90;25.50;;;;;;;5.43;75.27;99418.23;85513;1324;98454;-66
2021/11/02 00:23:45;;;;;;;36.60;25.40;;;;;;;5.42;75.75;99422.54;85638;1323;86748;-64
2021/11/02 00:25:54;;;;;;;39.40;26.20;;;;;;;5.40;75.71;99421.65;85608;1321;92888;-63
2021/11/02 00:28:07;;;;;;;39.60;26.70;;;;;;;5.42;75.96;99418.95;85571;1322;78656;-61
2021/11/02 00:30:19;;;;;;;39.00;26.30;;;;;;;5.42;75.78;99416.35;85666;1318;83401;-64
2021/11/02 00:32:28;;;;;;;41.50;27.10;;;;;;;5.37;75.84;99412.36;85624;1325;98088;-66
2021/11/02 00:34:41;;;;;;;38.10;26.40;;;;;;;5.36;75.72;99408.89;85563;1322;87785;-64
2021/11/02 00:36:50;;;;;;;42.50;27.10;;;;;;;5.36;75.95;99406.41;85609;1319;92734;-64
2021/11/02 00:39:03;;;;;;;38.50;26.90;;;;;;;5.32;76.40;99405.98;85625;1320;81181;-67
2021/11/02 00:41:12;;;;;;;37.60;25.30;;;;;;;5.29;76.07;99400.77;85642;1321;79503;-65
2021/11/02 00:43:26;;;;;;;44.70;26.60;;;;;;;5.30;75.91;99400.67;85548;1324;98495;-65
2021/11/02 00:45:39;;;;;;;39.90;26.60;;;;;;;5.26;76.25;99394.38;85561;1325;89596;-65
2021/11/02 00:47:51;;;;;;;41.20;27.00;;;;;;;5.24;76.59;99398.69;85597;1322;96051;-63
2021/11/02 00:50:01;;;;;;;36.70;26.20;;;;;;;5.24;76.28;99397.31;85593;1325;80842;-63
2021/11/02 00:52:13;;;;;;;41.60;26.40;;;;;;;5.20;76.06;99392.95;85587;1325;80091;-67
2021/11/02 00:54:24;;;;;;;37.90;25.90;;;;;;;5.19;76.31;99391.66;85643;1318;99419;-65
2021/11/02 00:56:33;;;;;;;41.20;27.40;;;;;;;5.13;76.50;99390.61;85610;1320;89244;-65
2021/11/02 00:58:43;;;;;;;41.20;26.40;;;;;;;5.10;76.32;99391.43;85619;1325;93815;-66
2021/11/02 01:00:55;;;;;;;41.30;27.10;;;;;;;5.10;76.09;99386.15;85591;1322;79681;-66
2021/11/02 01:03:06;;;;;;;38.50;26.50;;;;;;;5.11;76.27;99378.17;85603;1324;83288;-66
2021/11/02 01:05:20;;;;;;;41.10;27.30;;;;;;;5.10;76.04;99372.85;85605;1323;98137;-64
2021/11/02 01:07:29;;;;;;;40.10;26.90;;;;;;;5.08;76.44;99373.02;85632;1320;85711;-66
2021/11/02 01:09:38;;;;;;;42.50;27.20;;;;;;;5.06;76.37;99368.79;85559;1319;95526;-65
2021/11/02 01:11:47;;;;;;;43.50;27.50;;;;;;;5.03;76.60;99363.36;85598;1325;81441;-66
2021/11/02 01:13:57;;;;;;;44.20;28.60;;;;;;;4.99;76.54;99362.14;85570;1321;79859;-65
2021/11/02 01:16:07;;;;;;;40.30;28.50;;;;;;;4.98;76.47;99360.57;85556;1320;98991;-64
2021/11/02 01:18:17;;;;;;;42.90;28.00;;;;;;;5.00;76.99;99361.83;85598;1318;87565;-62
2021/11/02 01:20:30;;;;;;;41.10;26.30;;;;;;;4.96;76.98;99360.09;85587;1325;94417;-63
2021/11/02 01:22:40;;;;;;;50.70;28.70;;;;;;;4.94;76.60;99353.19;85565;1322;81645;-62
2021/11/02 01:24:50;;;;;;;41.20;27.70;;;;;;;4.93;76.81;99359.21;85614;1323;79656;-63
2021/11/02 01:26:59;;;;;;;43.50;27.60;;;;;;;4.89;76.84;99363.13;85589;1326;96929;-66
2021/11/02 01:29:12;;;;;;;41.50;27.30;;;;;;;4.88;76.90;99362.65;85599;1320;88946;-66
2021/11/02 01:31:21;;;;;;;38.80;27.00;;;;;;;4.83;76.88;99362.27;85634;1318;93636;-64
2021/11/02 01:33:31;;;;;;;41.60;27.40;;;;;;;4.81;76.74;99359.61;85574;1323;77475;-66
2021/11/02 01:35:41;;;;;;;41.30;28.90;;;;;;;4.80;77.09;99361.17;85582;1324;81594;-65
2021/11/02 01:37:51;;;;;;;43.10;29.10;;;;;;;4.79;76.92;99354.58;85582;1323;99417;-64
2021/11/02 01:40:05;;;;;;;38.50;27.40;;;;;;;4.78;76.72;99352.95;85577;1322;89142;-63
2021/11/02 01:42:15;;;;;;;38.70;26.60;;;;;;;4.77;76.85;99345.38;85526;1319;95463;-63
2021/11/02 01:44:28;;;;;;;40.20;27.50;;;;;;;4.78;76.83;99346.62;85623;1323;80326;-64
2021/11/02 01:46:44;;;;;;;41.60;27.50;;;;;;;4.74;76.78;99343.87;85437;1327;81279;-69
2021/11/02 01:48:56;;;;;;;43.80;28.50;;;;;;;4.70;76.91;99339.41;85569;1319;97318;-65
2021/11/02 01:51:06;;;;;;;42.00;27.50;;;;;;;4.67;77.03;99334.22;85621;1321;88005;-66
2021/11/02 01:53:18;;;;;;;40.00;29.60;;;;;;;4.64;76.94;99329.61;85520;1325;95240;-66
2021/11/02 01:55:31;;;;;;;41.10;28.90;;;;;;;4.64;76.85;99329.81;85559;1320;78689;-66
2021/11/02 01:57:46;;;;;;;38.60;27.40;;;;;;;4.63;76.85;99328.20;85619;1320;82125;-66
2021/11/02 01:59:56;;;;;;;45.50;28.80;;;;;;;4.62;77.21;99323.69;85609;1322;98474;-65
2021/11/02 02:02:15;;;;;;;40.00;26.40;;;;;;;4.60;77.27;99325.14;85601;1323;88173;-64
2021/11/02 02:04:45;;;;;;;42.20;30.00;;;;;;;4.57;77.16;99319.98;85444;1325;95020;-63
2021/11/02 02:07:09;;;;;;;40.00;27.10;;;;;;;4.57;77.40;99315.63;85469;1319;81839;-63
2021/11/02 02:09:30;;;;;;;41.30;27.40;;;;;;;4.53;77.25;99315.80;85586;1325;83180;-65
2021/11/02 02:11:48;;;;;;;41.20;27.00;;;;;;;4.50;77.74;99315.24;85612;1312;95994;-67
2021/11/02 02:14:08;;;;;;;43.40;26.80;;;;;;;4.43;77.71;99309.46;85639;1319;85496;-68
2021/11/02 02:16:24;;;;;;;43.80;28.30;;;;;;;4.40;77.96;99309.16;85571;1318;92174;-66
2021/11/02 02:18:40;;;;;;;44.40;29.50;;;;;;;4.40;77.92;99319.93;85503;1319;81786;-63
2021/11/02 02:21:31;;;;;;;42.20;28.20;;;;;;;4.41;77.57;99323.05;85596;1323;79658;-67
2021/11/02 02:24:03;;;;;;;46.50;28.60;;;;;;;4.40;78.23;99321.42;85592;1325;98249;-64
2021/11/02 02:26:29;;;;;;;47.10;30.10;;;;;;;4.36;78.49;99321.92;85619;1322;89527;-64
2021/11/02 02:28:46;;;;;;;44.70;29.70;;;;;;;4.35;78.37;99318.94;85460;1322;95878;-68
2021/11/02 02:31:06;;;;;;;44.70;29.40;;;;;;;4.37;78.06;99312.55;85609;1325;82193;-65
2021/11/02 02:33:21;;;;;;;40.60;28.50;;;;;;;4.38;78.15;99313.05;85465;1327;82645;-65
2021/11/02 02:35:29;;;;;;;;;;;;;;;4.38;78.15;99305.79;85520;1325;97654;-65
2021/11/02 02:37:42;;;;;;;39.40;27.40;;;;;;;4.36;78.24;99304.77;85624;1321;88342;-65
2021/11/02 02:39:58;;;;;;;45.90;28.90;;;;;;;4.30;78.66;99299.63;85440;1325;95881;-66
2021/11/02 02:42:16;;;;;;;45.40;29.40;;;;;;;4.27;78.55;99294.96;85609;1323;81130;-65
2021/11/02 02:44:30;;;;;;;48.60;29.80;;;;;;;4.27;78.54;99299.61;85413;1321;80762;-65
2021/11/02 02:46:41;;;;;;;44.60;29.20;;;;;;;4.29;78.70;99310.83;85616;1323;99318;-64
2021/11/02 02:48:55;;;;;;;48.40;29.60;;;;;;;4.28;78.54;99315.84;85630;1326;87009;-63
2021/11/02 02:51:07;;;;;;;42.00;28.60;;;;;;;4.27;78.30;99318.29;85478;1322;97445;-63
2021/11/02 02:53:17;;;;;;;41.00;28.80;;;;;;;4.24;78.38;99312.95;85599;1318;82049;-65
2021/11/02 02:55:32;;;;;;;46.40;29.90;;;;;;;4.20;78.94;99313.98;85537;1320;81992;-66
2021/11/02 02:57:48;;;;;;;46.00;28.90;;;;;;;4.19;78.42;99308.88;85613;1319;98938;-64
2021/11/02 03:00:02;;;;;;;42.50;29.90;;;;;;;4.19;78.56;99312.63;85493;1324;87452;-62
2021/11/02 03:02:15;;;;;;;43.50;29.90;;;;;;;4.20;78.49;99318.96;85568;1325;93431;-64
2021/11/02 03:04:33;;;;;;;44.80;29.60;;;;;;;4.18;78.33;99317.69;85626;1322;78142;-65
2021/11/02 03:07:01;;;;;;;45.70;29.90;;;;;;;4.12;78.34;99315.16;85440;1328;82902;-64
2021/11/02 03:09:16;;;;;;;45.10;29.80;;;;;;;4.08;78.72;99315.07;85575;1325;99469;-62
2021/11/02 03:11:28;;;;;;;44.50;29.00;;;;;;;4.04;78.75;99312.16;85581;1325;88550;-63
2021/11/02 03:13:43;;;;;;;46.80;29.20;;;;;;;4.00;78.70;99309.95;85534;1319;94884;-65
2021/11/02 03:15:59;;;;;;;42.90;28.90;;;;;;;4.00;78.67;99303.35;85533;1319;81267;-65
2021/11/02 03:18:40;;;;;;;45.40;30.60;;;;;;;3.99;78.82;99299.55;85535;1325;83271;-63
2021/11/02 03:43:39;;;;;;;47.30;30.90;;;;;;;3.81;78.67;99288.35;85599;1318;83122;-64
2021/11/02 03:48:46;;;;;;;43.80;29.40;;;;;;;3.84;78.90;99279.30;85374;1322;89179;-66
2021/11/02 03:51:10;;;;;;;43.00;28.50;;;;;;;3.87;79.38;99274.97;85559;1318;94946;-66
2021/11/02 03:56:02;;;;;;;45.80;29.50;;;;;;;4.03;79.31;99274.73;85562;1318;82083;-66
2021/11/02 03:58:16;;;;;;;46.50;30.70;;;;;;;4.06;79.47;99278.28;85606;1318;97132;-66
2021/11/02 04:00:47;;;;;;;39.80;28.00;;;;;;;4.16;79.28;99278.36;85612;1319;88003;-65
2021/11/02 04:30:55;;;;;;;47.40;31.50;;;;;;;3.91;79.35;99279.86;85578;1325;78250;-64
2021/11/02 04:33:40;;;;;;;43.80;30.10;;;;;;;3.91;79.20;99278.39;85599;1322;81757;-62
2021/11/02 05:09:10;;;;;;;43.50;28.40;;;;;;;3.58;79.84;99244.77;85549;1323;80168;-64
2021/11/02 05:46:49;;;;;;;47.20;30.10;;;;;;;3.54;80.19;99242.45;84876;1330;79042;-67
2021/11/02 05:56:48;;;;;;;47.50;30.40;;;;;;;3.70;80.56;99257.59;84987;1326;95301;-64
2021/11/02 05:59:18;;;;;;;42.10;29.30;;;;;;;3.77;80.28;99273.64;85150;1325;79329;-65
2021/11/02 06:01:46;;;;;;;45.10;30.60;;;;;;;3.83;80.02;99280.83;85482;1324;82550;-67
2021/11/02 06:04:11;;;;;;;46.00;30.00;;;;;;;3.90;79.94;99277.65;85514;1318;97786;-65
2021/11/02 06:06:37;;;;;;;45.20;29.30;;;;;;;3.94;79.89;99273.13;85511;1326;88629;-65
2021/11/02 06:09:05;;;;;;;43.00;28.30;;;;;;;3.98;79.84;99263.85;85497;1318;95097;-68
2021/11/02 06:29:39;;;;;;;44.00;29.00;;;;;;;6.89;78.02;99249.26;85494;1318;98705;-65
2021/11/02 06:31:54;;;;;;;40.90;29.70;;;;;;;7.44;77.64;99241.38;85534;1318;88450;-71
2021/11/02 06:34:13;;;;;;;41.30;28.10;;;;;;;8.28;76.74;99244.23;85497;1319;95994;-72
2021/11/02 06:39:35;;;;;;;37.90;28.00;;;;;;;9.16;74.14;99248.03;85506;1319;82046;-70
2021/11/02 06:42:10;;;;;;;39.50;27.90;;;;;;;9.38;72.65;99242.95;85531;1318;98604;-65
2021/11/02 06:55:35;;;;;;;33.40;25.10;;;;;;;10.63;68.27;99245.18;85203;1324;97383;-70
2021/11/02 06:58:17;;;;;;;35.60;25.60;;;;;;;9.77;67.29;99246.00;85483;1320;88566;-66
2021/11/02 07:00:56;;;;;;;37.10;26.80;;;;;;;9.16;67.88;99243.75;85454;1324;94410;-66
2021/11/02 07:18:57;;;;;;;39.60;27.80;;;;;;;6.50;70.73;99259.66;85481;1321;83491;-64
2021/11/02 07:21:12;;;;;;;37.10;26.10;;;;;;;6.40;71.33;99251.52;85477;1322;100000;-63
2021/11/02 07:23:36;;;;;;;37.70;27.70;;;;;;;6.30;71.40;99244.16;85483;1321;88640;-63
2021/11/02 07:25:59;;;;;;;41.90;27.90;;;;;;;6.46;71.86;99244.61;85476;1320;93927;-63
2021/11/02 07:28:41;;;;;;;36.00;26.40;;;;;;;6.73;71.57;99241.63;85452;1322;77479;-65
2021/11/02 08:47:16;;;;;;;28.60;23.70;;;;;;;13.93;60.42;99201.55;85304;1327;82327;-63
2021/11/02 08:49:32;;;;;;;28.00;24.00;;;;;;;14.16;57.10;99201.75;85454;1321;99038;-62
2021/11/02 08:51:42;;;;;;;27.10;22.90;;;;;;;14.48;58.57;99209.94;85303;1327;89254;-62
2021/11/02 08:53:57;;;;;;;24.50;21.70;;;;;;;14.74;57.80;99209.02;85584;1318;95769;-63
2021/11/02 08:56:10;;;;;;;26.10;23.20;;;;;;;14.55;57.20;99215.36;85539;1319;80148;-65
2021/11/02 08:58:33;;;;;;;26.80;22.90;;;;;;;14.43;56.78;99220.13;85461;1325;80239;-63
2021/11/02 09:00:50;;;;;;;25.30;22.00;;;;;;;14.24;56.43;99220.38;85584;1322;98184;-67
2021/11/02 09:03:12;;;;;;;24.70;21.80;;;;;;;13.90;56.71;99212.36;85474;1317;88953;-65
2021/11/02 09:05:29;;;;;;;28.60;22.90;;;;;;;13.49;56.34;99210.65;85592;1323;95389;-67
2021/11/02 09:07:50;;;;;;;26.00;23.10;;;;;;;13.79;57.12;99210.06;85555;1319;78980;-63
2021/11/02 09:10:17;;;;;;;24.20;21.70;;;;;;;14.38;55.95;99212.36;85500;1320;84530;-61
2021/11/02 09:12:35;;;;;;;28.90;22.70;;;;;;;14.49;55.49;99210.36;85472;1321;99042;-63
2021/11/02 09:14:54;;;;;;;27.90;24.00;;;;;;;13.98;54.64;99209.27;85579;1318;88276;-63
2021/11/02 09:17:16;;;;;;;26.40;22.80;;;;;;;13.37;55.50;99202.45;85567;1319;92721;-67
2021/11/02 09:19:31;;;;;;;30.30;23.90;;;;;;;12.83;55.41;99201.46;85472;1325;78861;-67
2021/11/02 09:21:42;;;;;;;24.80;20.60;;;;;;;12.45;55.99;99198.23;85619;1318;81094;-67
2021/11/02 09:23:58;;;;;;;27.20;23.20;;;;;;;12.02;56.38;99199.85;85573;1318;97587;-67
2021/11/02 09:26:09;;;;;;;29.30;23.20;;;;;;;11.94;57.03;99192.86;85608;1318;88541;-67
2021/11/02 09:28:20;;;;;;;25.50;21.90;;;;;;;11.69;57.33;99190.83;85463;1321;94623;-62
2021/11/02 09:30:33;;;;;;;25.40;21.70;;;;;;;11.52;57.62;99179.85;85600;1318;79604;-63
2021/11/02 09:32:49;;;;;;;26.60;22.90;;;;;;;11.39;58.09;99181.83;85479;1322;81639;-66
2021/11/02 09:34:59;;;;;;;27.60;22.00;;;;;;;11.35;58.43;99183.77;85578;1318;99626;-66
2021/11/02 09:37:18;;;;;;;26.80;23.20;;;;;;;11.16;58.41;99177.44;85589;1319;86846;-67
2021/11/02 09:39:39;;;;;;;27.60;21.50;;;;;;;10.92;58.57;99179.28;85586;1322;93462;-66
2021/11/02 09:42:36;;;;;;;26.00;22.40;;;;;;;10.77;59.13;99184.03;85585;1326;78897;-61
2021/11/02 09:45:36;;;;;;;27.70;22.40;;;;;;;10.50;59.43;99191.33;85595;1320;81956;-62
2021/11/02 09:48:53;;;;;;;27.30;21.60;;;;;;;10.41;59.93;99194.52;85270;1322;99237;-61
2021/11/02 09:52:05;;;;;;;27.90;22.20;;;;;;;10.50;60.31;99196.56;84919;1328;88042;-64
2021/11/02 09:55:28;;;;;;;25.40;20.70;;;;;;;10.67;60.49;99192.79;84800;1327;94730;-66
2021/11/02 09:58:13;;;;;;;26.20;22.50;;;;;;;10.95;60.50;99195.96;83987;1339;79392;-63
2021/11/02 10:00:53;;;;;;;29.50;22.00;;;;;;;11.05;60.25;99191.06;84710;1330;83528;-62
2021/11/02 10:03:49;;;;;;;26.80;21.40;;;;;;;11.17;59.95;99194.71;85585;1319;97489;-66
2021/11/02 10:06:52;;;;;;;24.80;20.40;;;;;;;11.32;60.06;99195.84;85587;1319;87182;-65
2021/11/02 10:09:11;;;;;;;28.60;21.50;;;;;;;11.23;60.05;99184.32;85458;1322;92618;-62
2021/11/02 10:11:37;;;;;;;30.50;22.60;;;;;;;11.14;59.62;99186.31;85598;1319;81035;-62
2021/11/02 10:14:27;;;;;;;25.70;22.30;;;;;;;11.00;59.88;99178.47;85603;1322;82537;-62
2021/11/02 10:17:16;;;;;;;26.20;20.90;;;;;;;10.79;59.96;99180.05;85517;1320;99425;-65
2021/11/02 10:19:59;;;;;;;25.00;21.20;;;;;;;10.71;60.32;99179.66;85590;1318;87907;-62
2021/11/02 10:22:50;;;;;;;28.10;21.60;;;;;;;10.76;60.48;99173.85;85600;1318;95753;-66
2021/11/02 10:25:14;;;;;;;26.30;20.00;;;;;;;10.79;60.70;99167.23;85603;1318;80137;-66
2021/11/02 10:27:56;;;;;;;26.10;20.90;;;;;;;10.76;60.81;99161.41;85607;1320;81381;-67
2021/11/02 10:30:41;;;;;;;26.90;21.40;;;;;;;10.83;60.72;99157.03;85580;1319;99827;-66
2021/11/02 10:32:54;;;;;;;25.60;19.80;;;;;;;10.77;60.57;99156.68;85621;1319;88455;-67
2021/11/02 10:35:19;;;;;;;27.20;20.50;;;;;;;10.81;60.79;99153.58;85588;1319;94538;-66
2021/11/02 10:37:39;;;;;;;26.80;21.00;;;;;;;10.89;60.75;99149.09;85464;1318;78835;-66
2021/11/02 10:40:24;;;;;;;27.30;20.10;;;;;;;10.91;60.66;99152.07;85576;1326;83484;-65
2021/11/02 10:43:06;;;;;;;24.40;20.30;;;;;;;10.93;60.65;99151.59;85488;1325;98476;-66
2021/11/02 10:45:19;;;;;;;25.50;20.50;;;;;;;10.99;60.73;99153.79;85476;1322;88797;-66
2021/11/02 10:47:40;;;;;;;25.30;20.30;;;;;;;11.02;60.68;99154.55;85595;1320;94468;-63
2021/11/02 10:50:08;;;;;;;25.20;19.30;;;;;;;11.05;60.80;99151.48;85603;1318;76839;-63
2021/11/02 10:52:26;;;;;;;28.50;21.70;;;;;;;11.22;60.65;99146.30;85560;1319;82504;-66
2021/11/02 10:55:08;;;;;;;24.60;20.70;;;;;;;11.29;60.46;99134.98;85587;1320;98060;-67
2021/11/02 11:00:01;;;;;;;27.20;21.70;;;;;;;11.63;60.21;99127.49;87082;1309;92758;-65
2021/11/02 11:02:23;;;;;;;23.90;19.30;;;;;;;11.72;59.89;99124.34;85568;1309;80244;-66
2021/11/02 11:04:35;;;;;;;23.80;18.90;;;;;;;11.69;59.97;99120.48;85442;1328;82432;-66
2021/11/02 11:06:46;;;;;;;24.70;20.00;;;;;;;11.64;59.89;99124.37;85413;1328;99916;-66
2021/11/02 11:09:03;;;;;;;25.40;20.30;;;;;;;11.46;59.49;99127.42;85429;1309;88982;-62
2021/11/02 11:11:22;;;;;;;24.70;19.80;;;;;;;11.30;59.72;99120.73;85422;1322;95684;-66
2021/11/02 11:13:41;;;;;;;26.60;19.00;;;;;;;11.19;59.85;99126.05;85490;1320;80214;-68
2021/11/02 11:16:02;;;;;;;21.80;18.60;;;;;;;11.09;59.96;99125.37;85470;1322;82334;-64
2021/11/02 11:18:18;;;;;;;24.20;19.90;;;;;;;11.01;60.08;99125.87;85461;1320;99413;-64
2021/11/02 11:20:33;;;;;;;25.60;20.00;;;;;;;10.95;60.01;99127.92;85479;1321;87823;-65
2021/11/02 11:22:46;;;;;;;25.10;19.20;;;;;;;10.90;60.20;99126.47;85479;1322;94662;-65
2021/11/02 11:25:05;;;;;;;24.30;19.60;;;;;;;10.76;60.20;99125.60;85482;1322;79403;-67
2021/11/02 11:27:20;;;;;;;25.90;20.80;;;;;;;10.74;60.29;99133.20;85415;1325;82828;-66
2021/11/02 11:29:35;;;;;;;25.70;19.90;;;;;;;10.68;60.43;99133.60;85487;1322;98337;-68
2021/11/02 11:31:45;;;;;;;25.60;20.60;;;;;;;10.61;60.40;99135.65;85479;1322;89238;-65
2021/11/02 11:34:04;;;;;;;22.10;18.70;;;;;;;10.59;60.55;99133.27;85478;1322;94531;-64
2021/11/02 11:36:17;;;;;;;26.60;20.80;;;;;;;10.58;60.65;99134.31;85398;1328;81347;-64
2021/11/02 11:38:36;;;;;;;28.30;20.80;;;;;;;10.55;60.67;99131.60;85636;1309;80051;-69
2021/11/02 11:40:46;;;;;;;25.80;19.70;;;;;;;10.49;60.77;99137.79;85493;1321;97625;-67
2021/11/02 11:43:00;;;;;;;26.60;21.10;;;;;;;10.46;60.81;99136.98;85431;1321;89208;-66
2021/11/02 11:45:16;;;;;;;29.00;19.50;;;;;;;10.41;60.95;99133.75;85537;1310;95829;-64
2021/11/02 11:47:28;;;;;;;23.10;18.50;;;;;;;10.41;61.07;99138.66;85532;1325;81185;-64
2021/11/02 11:49:40;;;;;;;24.90;19.30;;;;;;;10.37;61.17;99140.17;85555;1316;79579;-64
2021/11/02 11:51:57;;;;;;;25.50;20.50;;;;;;;10.25;61.29;99138.48;85428;1325;97326;-63
2021/11/02 11:54:13;;;;;;;28.90;20.40;;;;;;;10.18;61.44;99136.06;85444;1322;89317;-67
2021/11/02 11:56:33;;;;;;;25.90;20.40;;;;;;;10.14;61.58;99132.67;85432;1325;95782;-67
2021/11/02 11:58:50;;;;;;;23.50;18.80;;;;;;;10.14;61.68;99133.67;85493;1313;78326;-69
2021/11/02 12:00:55;;;;;;;28.70;20.80;;;;;;;10.15;61.78;99133.30;86658;1308;82158;31
2021/11/02 12:03:18;;;;;;;26.50;19.50;;;;;;;10.10;61.88;99138.70;85305;1328;98186;-63
2021/11/02 12:05:31;;;;;;;25.50;19.40;;;;;;;10.13;62.01;99138.90;85151;1330;87809;-64
2021/11/02 12:07:56;;;;;;;26.50;19.30;;;;;;;10.16;62.00;99137.41;85198;1328;94581;-64
2021/11/02 12:10:14;;;;;;;24.40;19.60;;;;;;;10.18;62.07;99137.89;85224;1325;79527;-65
2021/11/02 12:12:29;;;;;;;26.80;20.70;;;;;;;10.19;62.03;99134.38;85310;1325;80925;-66
2021/11/02 12:14:50;;;;;;;28.10;20.00;;;;;;;10.18;62.10;99130.79;85282;1328;99731;-66
2021/11/02 12:17:06;;;;;;;24.80;19.20;;;;;;;10.19;62.14;99133.45;85246;1328;88740;-63
2021/11/02 12:19:22;;;;;;;26.40;20.00;;;;;;;10.17;62.15;99134.52;85210;1326;94273;-64
2021/11/02 12:21:41;;;;;;;27.10;20.80;;;;;;;10.17;62.14;99134.08;85304;1322;77724;-64
2021/11/02 12:24:00;;;;;;;28.00;19.80;;;;;;;10.16;62.29;99134.59;85345;1323;80979;-65
2021/11/02 12:26:13;;;;;;;23.10;18.00;;;;;;;10.18;62.30;99132.49;85306;1329;99622;-66
2021/11/02 12:28:37;;;;;;;26.70;19.20;;;;;;;10.19;62.34;99134.97;85200;1328;87007;-65
2021/11/02 12:30:51;;;;;;;25.30;20.20;;;;;;;10.19;62.40;99137.39;85215;1327;95422;-63
2021/11/02 12:33:11;;;;;;;26.60;21.10;;;;;;;10.20;62.40;99138.41;85224;1325;77955;-65
2021/11/02 12:35:38;;;;;;;27.10;19.90;;;;;;;10.14;62.47;99139.83;85294;1326;82810;-65
2021/11/02 12:37:57;;;;;;;28.00;20.90;;;;;;;10.15;62.50;99138.33;85235;1324;98959;-64
2021/11/02 12:40:21;;;;;;;25.90;20.00;;;;;;;10.13;62.58;99137.42;85208;1324;88578;-64
2021/11/02 12:42:39;;;;;;;29.00;20.20;;;;;;;10.12;62.63;99142.43;85183;1325;92229;-64
2021/11/02 12:44:49;;;;;;;27.60;20.00;;;;;;;10.13;62.61;99144.94;85213;1325;80361;-63
2021/11/02 12:47:01;;;;;;;19.70;15.80;;;;;;;10.12;62.73;99147.33;85199;1325;80826;-67
2021/11/02 12:49:14;;;;;;;25.90;20.00;;;;;;;10.07;62.85;99151.41;85211;1317;96355;-66
2021/11/02 12:51:32;;;;;;;24.90;19.70;;;;;;;10.03;62.99;99154.30;85210;1327;88625;-62
2021/11/02 12:53:57;;;;;;;27.50;19.60;;;;;;;10.01;63.06;99153.53;85289;1323;96251;-63
2021/11/02 12:56:17;;;;;;;26.60;20.30;;;;;;;10.01;63.14;99151.16;85310;1321;77730;-65
2021/11/02 12:58:30;;;;;;;26.50;19.80;;;;;;;9.99;63.16;99153.00;85339;1328;82230;-67
2021/11/02 13:00:45;;;;;;;28.10;20.80;;;;;;;9.95;63.32;99155.59;85309;1321;98600;-66
2021/11/02 13:03:20;;;;;;;28.40;21.00;;;;;;;9.94;63.43;99157.59;84702;1326;1016365;-62
2021/11/02 13:05:36;;;;;;;28.20;20.40;;;;;;;9.92;63.60;99154.20;85432;1322;95896;-62
2021/11/02 13:08:03;;;;;;;26.60;20.80;;;;;;;9.93;63.77;99151.67;85430;1328;82113;-63
2021/11/02 13:10:23;;;;;;;29.30;20.40;;;;;;;9.91;63.92;99155.24;85489;1326;80731;-63
2021/11/02 13:12:36;;;;;;;27.30;20.90;;;;;;;9.92;63.97;99157.64;85499;1326;98081;-66
2021/11/02 13:14:49;;;;;;;29.90;21.30;;;;;;;9.94;64.21;99155.27;85503;1322;88023;-66
2021/11/02 13:17:01;;;;;;;27.20;21.70;;;;;;;9.93;64.38;99152.48;85447;1325;95717;-65
2021/11/02 13:19:19;;;;;;;30.30;21.30;;;;;;;9.93;64.55;99158.21;85422;1329;78510;-65
2021/11/02 13:21:37;;;;;;;27.20;21.00;;;;;;;9.93;64.52;99154.82;85468;1325;83159;-62
2021/11/02 13:23:58;;;;;;;27.90;21.40;;;;;;;9.94;64.71;99156.67;85418;1325;99503;-63
2021/11/02 13:26:19;;;;;;;29.80;22.80;;;;;;;9.93;64.88;99158.22;85436;1328;88938;-66
2021/11/02 13:28:37;;;;;;;30.60;21.20;;;;;;;9.90;65.13;99161.55;85439;1325;96104;-67
2021/11/02 13:30:47;;;;;;;32.10;23.90;;;;;;;9.84;65.57;99160.45;85458;1320;81882;-66
2021/11/02 13:33:03;;;;;;;29.40;22.00;;;;;;;9.84;65.73;99158.63;85387;1322;81062;-67
2021/11/02 13:35:13;;;;;;;28.00;20.80;;;;;;;9.82;66.08;99158.77;85484;1322;97693;-68
2021/11/02 13:37:27;;;;;;;28.50;22.20;;;;;;;9.75;66.72;99162.58;85448;1322;87604;-64
2021/11/02 13:39:57;;;;;;;28.40;22.20;;;;;;;9.74;66.72;99160.59;85441;1325;95200;-64
2021/11/02 13:42:10;;;;;;;28.80;22.20;;;;;;;9.73;67.02;99165.61;85438;1328;80317;-68
2021/11/02 13:44:22;;;;;;;30.70;23.00;;;;;;;9.70;67.39;99163.14;85484;1323;82936;-69
2021/11/02 13:46:34;;;;;;;30.00;21.70;;;;;;;9.64;67.73;99161.63;85450;1326;97122;-67
2021/11/02 13:48:47;;;;;;;30.00;22.70;;;;;;;9.61;67.77;99161.73;85404;1320;85652;-68
2021/11/02 13:50:58;;;;;;;30.60;23.00;;;;;;;9.61;68.11;99158.61;85442;1321;95915;-69
2021/11/02 13:53:11;;;;;;;30.80;22.40;;;;;;;9.56;68.83;99153.45;85497;1326;78645;-67
2021/11/02 13:55:22;;;;;;;30.60;22.50;;;;;;;9.51;68.83;99152.88;85510;1325;82996;-65
2021/11/02 13:57:35;;;;;;;28.60;23.10;;;;;;;9.50;69.14;99154.51;85483;1320;98781;-66
2021/11/02 13:59:47;;;;;;;29.80;22.40;;;;;;;9.48;69.24;99155.76;85488;1325;87683;-66
2021/11/02 14:02:04;;;;;;;29.20;22.30;;;;;;;9.48;69.39;99157.45;85441;1320;94469;-66
2021/11/02 14:04:21;;;;;;;31.00;23.00;;;;;;;9.46;69.67;99157.42;85367;1322;81310;-64
2021/11/02 14:06:35;;;;;;;30.50;23.00;;;;;;;9.42;70.01;99159.63;85495;1320;80787;-64
2021/11/02 14:08:46;;;;;;;;;;;;;;;9.36;70.62;99160.60;85488;1322;98726;-67
2021/11/02 14:11:01;;;;;;;28.80;22.90;;;;;;;9.31;70.64;99159.95;85468;1329;89553;-66
2021/11/02 14:13:14;;;;;;;30.60;23.20;;;;;;;9.31;70.73;99161.61;85440;1328;94838;-64
2021/11/02 14:15:28;;;;;;;32.00;23.50;;;;;;;9.28;71.11;99162.04;85469;1326;80435;-67
2021/11/02 14:17:41;;;;;;;35.00;23.50;;;;;;;9.19;71.37;99162.84;85446;1322;82472;-64
2021/11/02 14:19:56;;;;;;;29.20;22.60;;;;;;;9.17;71.51;99161.73;85468;1322;99592;-64
2021/11/02 14:22:07;;;;;;;31.50;22.70;;;;;;;9.15;71.77;99164.92;85505;1322;86503;-67
2021/11/02 14:24:32;;;;;;;32.30;22.90;;;;;;;9.17;71.81;99163.77;85407;1329;95407;-65
2021/11/02 14:26:51;;;;;;;32.20;23.50;;;;;;;9.20;72.32;99164.29;85438;1320;78477;-65
2021/11/02 14:29:06;;;;;;;31.70;23.90;;;;;;;9.18;71.98;99162.51;85492;1326;81214;-65
2021/11/02 14:31:46;;;;;;;30.80;23.90;;;;;;;9.18;72.16;99165.00;85466;1322;99547;-65
2021/11/02 14:33:59;;;;;;;28.10;22.10;;;;;;;9.16;72.34;99168.77;85424;1325;87976;-65
2021/11/02 14:36:09;;;;;;;36.50;23.50;;;;;;;9.10;72.43;99167.71;85418;1320;93179;-65
2021/11/02 14:38:26;;;;;;;31.20;22.50;;;;;;;9.08;72.85;99166.17;85401;1322;82316;-65
2021/11/02 14:40:40;;;;;;;32.00;23.60;;;;;;;8.96;73.22;99162.48;85474;1322;82952;-63
2021/11/02 14:42:54;;;;;;;29.20;23.20;;;;;;;8.93;73.06;99161.73;85446;1320;98501;-65
2021/11/02 14:45:08;;;;;;;35.20;25.70;;;;;;;8.90;73.36;99162.15;85459;1320;86330;-65
2021/11/02 14:47:36;;;;;;;30.90;22.50;;;;;;;8.89;73.48;99157.59;85440;1326;93662;-63
2021/11/02 14:49:48;;;;;;;31.20;24.80;;;;;;;8.90;73.66;99160.48;85482;1322;78942;-63
2021/11/02 14:52:01;;;;;;;34.40;25.60;;;;;;;8.88;73.86;99155.71;85411;1325;82130;-65
2021/11/02 14:54:30;;;;;;;34.20;24.30;;;;;;;8.88;74.15;99158.61;85450;1322;96939;-65
2021/11/02 14:56:40;;;;;;;34.30;24.50;;;;;;;8.86;74.03;99158.88;85468;1326;87979;-65
2021/11/02 14:58:58;;;;;;;33.40;25.20;;;;;;;8.84;74.54;99156.27;85462;1320;96217;-66
2021/11/02 15:01:07;;;;;;;32.50;24.80;;;;;;;8.80;74.45;99157.89;85447;1325;81147;-65
2021/11/02 15:03:32;;;;;;;35.90;27.30;;;;;;;8.74;75.00;99159.42;85471;1322;83248;-65